Airfield :
LOGIN :

Register | Disclaimer

   EN    FR    IT 

 










Legend :    VFR   Marginal VFR   IFR   Intensive IFR   Very Intensive IFR
Visi :
Ceiling :
>= 8 km
>= 3000ft
5 to 8 km
1000 to 3000 ft
1500m to 5 km
500 to 1000 ft
800 to 1500m
200 to 500 ft
< 800m
< 200 ft
Symbols :   Thunderstorms  Fog  Heavy snow  Heavy precipitations  Wind > 20 kt
SIGMETs :     Misc.  Thunderstorms  Icing  Turbulence  Mountain Waves  Volcanic Ashes






- Airport Elevation : 510 ft


LJCE - Cerklje

CURRENT METAR :
  • 290730Z 11005KT 9000 FEW015 OVC035 03/01 Q1020 RMK BLU

EXPIRED METARs :
  • 290700Z 10005KT 8000 OVC015 03/01 Q1020 RMK WHT
  • 290630Z 09005KT 8000 OVC030 03/01 Q1020 RMK BLU
  • 290600Z 10004KT 7000 OVC027 03/01 Q1019 RMK WHT
  • 290530Z AUTO 09003KT 9999 BR OVC028/// 03/01 Q1019
  • 290500Z AUTO 09003KT 9000 BR OVC026/// 03/01 Q1019

TAF TAF LJCE
Valid from the 29 at 06:00 until the 29 at 15:00 UTC


290500Z 2906/2915 09004KT 9999 OVC025



MET'MAP, your aeronautical weather chart ! - Copyright ORBIFLY December 2007 - Disclaimer

ORBIFLY MET'MAP TEAM :

Programming & Development : Alexandra Zaïnal
Original concept : Baudouin d'Aumeries
Technical & hardware support : Manuel Goepfert
Assistance : Marc-Olivier Méhu




SOURCES & CREDITS :

   NOAA